Time;durP1;ratioP1;P1;durP2;ratioP2;P2;SDS_P1;SDS_P2;PMS_P1;PMS_P2;Temp;Humidity;BMP_temperature;BMP_pressure;BME280_temperature;BME280_humidity;BME280_pressure;Samples;Min_cycle;Max_cycle;Signal;HPM_P1;HPM_P2
2024/03/01 00:00:53;;;;;;;4.35;3.25;;;;;;;13.94;56.63;99520.19;4465084;31;34657;-83
2024/03/01 00:03:21;;;;;;;9.15;5.35;;;;;;;13.97;56.71;99517.34;4479221;31;32726;-84
2024/03/01 00:05:49;;;;;;;3.42;2.10;;;;;;;13.97;56.71;99509.41;4466039;31;31980;-83
2024/03/01 00:08:17;;;;;;;5.68;4.22;;;;;;;14.06;56.45;99508.81;4465793;31;32875;-83
2024/03/01 00:10:45;;;;;;;7.03;3.97;;;;;;;13.88;57.06;99510.81;4478117;31;34237;-83
2024/03/01 00:13:12;;;;;;;4.75;2.40;;;;;;;14.01;56.55;99522.38;4491754;31;34421;-83
2024/03/01 00:15:40;;;;;;;3.45;2.80;;;;;;;13.97;56.65;99510.25;4464681;31;32748;-82
2024/03/01 00:18:08;;;;;;;3.60;3.30;;;;;;;13.92;57.00;99512.34;4493836;31;34038;-82
2024/03/01 00:20:35;;;;;;;8.40;5.32;;;;;;;13.98;56.93;99514.59;4489864;31;34487;-82
2024/03/01 00:23:03;;;;;;;3.35;3.08;;;;;;;13.91;57.29;99515.94;4463907;31;32704;-82
2024/03/01 00:25:31;;;;;;;6.90;3.65;;;;;;;14.06;56.95;99509.69;4492030;31;32612;-83
2024/03/01 00:27:59;;;;;;;4.45;2.50;;;;;;;14.06;57.02;99517.62;4467013;31;34199;-82
2024/03/01 00:30:26;;;;;;;3.00;2.80;;;;;;;14.14;56.57;99521.59;4480431;31;34036;-82
2024/03/01 00:32:54;;;;;;;15.43;3.90;;;;;;;14.07;56.85;99508.72;4478181;31;33795;-83
2024/03/01 00:35:22;;;;;;;5.32;4.80;;;;;;;14.07;56.92;99511.38;4477856;31;33058;-83
2024/03/01 00:37:51;;;;;;;4.68;2.60;;;;;;;14.20;56.61;99500.84;4480362;31;32878;-83
2024/03/01 00:40:20;;;;;;;3.28;2.67;;;;;;;14.06;57.18;99507.03;4477510;31;33361;-83
2024/03/01 00:42:48;;;;;;;8.68;4.57;;;;;;;13.99;57.39;99512.78;4479063;31;33293;-83
2024/03/01 00:45:16;;;;;;;3.30;3.00;;;;;;;13.78;58.00;99496.41;4492840;31;34357;-83
2024/03/01 00:47:45;;;;;;;2.28;2.12;;;;;;;14.28;56.42;99487.91;4478785;31;34175;-83
2024/03/01 00:50:14;;;;;;;4.80;2.95;;;;;;;14.11;56.84;99487.28;4478558;31;32581;-83
2024/03/01 00:52:42;;;;;;;15.18;1.95;;;;;;;14.02;57.15;99488.72;4465902;31;32357;-82
2024/03/01 00:55:10;;;;;;;3.85;3.58;;;;;;;14.05;57.07;99492.03;4480996;31;31962;-82
2024/03/01 00:57:38;;;;;;;8.27;3.45;;;;;;;14.23;56.74;99490.00;4479355;31;33901;-82
2024/03/01 01:00:08;;;;;;;6.55;4.45;;;;;;;14.30;56.44;99479.88;4468438;31;32622;-82
2024/03/01 01:02:36;;;;;;;2.47;2.30;;;;;;;14.08;56.82;99488.31;4493004;31;34087;-83
2024/03/01 01:05:09;;;;;;;2.62;2.35;;;;;;;13.97;57.06;99483.69;4467162;31;33132;-83
2024/03/01 01:07:37;;;;;;;5.05;3.95;;;;;;;14.19;56.42;99469.06;4477411;31;33112;-83
2024/03/01 01:10:06;;;;;;;3.37;2.33;;;;;;;14.05;57.15;99465.50;4477688;31;33343;-83
2024/03/01 01:12:34;;;;;;;6.18;2.75;;;;;;;14.00;57.05;99466.72;4478192;31;33817;-82
2024/03/01 01:15:03;;;;;;;4.05;3.70;;;;;;;14.17;56.57;99460.34;4476654;31;32255;-83
2024/03/01 01:17:31;;;;;;;1.85;1.75;;;;;;;14.30;56.08;99458.63;4491959;31;34620;-83
2024/03/01 01:19:59;;;;;;;4.10;3.17;;;;;;;14.48;55.30;99457.47;4484576;31;32866;-83
2024/03/01 01:22:27;;;;;;;4.12;3.78;;;;;;;14.35;55.76;99445.88;4479006;31;33121;-82
2024/03/01 01:24:55;;;;;;;8.70;4.00;;;;;;;14.26;56.02;99446.47;4476628;31;34121;-83
2024/03/01 01:27:23;;;;;;;9.05;5.00;;;;;;;14.28;55.93;99452.53;4476669;31;33821;-83
2024/03/01 01:29:51;;;;;;;5.37;3.65;;;;;;;14.32;55.95;99440.75;4477920;31;32934;-83
2024/03/01 01:32:19;;;;;;;3.90;3.53;;;;;;;14.02;56.93;99444.44;4488192;31;33830;-83
2024/03/01 01:34:46;;;;;;;10.35;4.15;;;;;;;14.24;56.00;99433.31;4479151;31;33538;-83
2024/03/01 01:37:14;;;;;;;4.75;4.22;;;;;;;14.29;55.72;99427.69;4490222;31;34573;-83
2024/03/01 01:39:42;;;;;;;3.20;3.00;;;;;;;14.31;55.76;99423.13;4492368;31;34461;-83
2024/03/01 01:42:10;;;;;;;3.15;2.87;;;;;;;14.25;55.63;99418.22;4478018;31;33721;-83
2024/03/01 01:44:38;;;;;;;3.80;3.50;;;;;;;14.37;55.33;99422.72;4493248;31;34087;-83
2024/03/01 01:47:06;;;;;;;9.88;5.15;;;;;;;14.31;55.41;99412.50;4489679;31;33567;-83
2024/03/01 01:49:34;;;;;;;4.55;4.12;;;;;;;14.39;55.00;99409.38;4490537;31;34383;-84
2024/03/01 01:52:02;;;;;;;7.65;4.22;;;;;;;14.23;55.42;99412.16;4476839;31;32786;-83
2024/03/01 01:54:30;;;;;;;9.73;5.25;;;;;;;14.30;54.95;99409.00;4478639;31;33256;-83
2024/03/01 01:56:58;;;;;;;3.87;3.55;;;;;;;14.56;53.99;99398.50;4491010;31;33511;-83
2024/03/01 01:59:26;;;;;;;5.53;3.00;;;;;;;14.24;54.97;99405.87;4467626;31;34058;-83
2024/03/01 02:01:54;;;;;;;4.37;3.33;;;;;;;14.33;54.56;99400.81;4477204;31;34251;-82
2024/03/01 02:04:22;;;;;;;5.68;4.30;;;;;;;13.84;55.80;99397.84;4489601;31;32627;-82
2024/03/01 02:06:49;;;;;;;9.15;6.35;;;;;;;13.65;56.58;99407.91;4475846;31;33153;-82
2024/03/01 02:09:18;;;;;;;5.25;2.67;;;;;;;14.05;55.40;99416.84;4491964;31;33201;-82
2024/03/01 02:11:46;;;;;;;10.40;5.05;;;;;;;14.04;55.34;99410.66;4463875;31;33252;-82
2024/03/01 02:14:14;;;;;;;7.90;5.03;;;;;;;14.06;55.08;99408.78;4489423;31;34052;-82
2024/03/01 02:16:42;;;;;;;4.32;3.92;;;;;;;14.04;55.55;99410.66;4475463;31;32883;-82
2024/03/01 02:19:15;;;;;;;5.07;3.65;;;;;;;14.09;55.08;99397.94;4493502;31;33984;-82
2024/03/01 02:21:51;;;;;;;2.62;1.92;;;;;;;14.11;55.38;99402.34;4481699;31;33900;-82
2024/03/01 02:24:20;;;;;;;7.03;3.65;;;;;;;14.34;54.53;99396.38;4481677;31;32066;-81
2024/03/01 02:26:47;;;;;;;7.12;4.72;;;;;;;14.11;54.92;99391.72;4489420;31;33881;-81
2024/03/01 02:29:15;;;;;;;6.72;4.78;;;;;;;14.34;54.24;99396.38;4491340;31;32704;-81
2024/03/01 02:31:43;;;;;;;10.32;5.95;;;;;;;14.20;54.83;99399.94;4466812;31;32923;-81
2024/03/01 02:34:11;;;;;;;4.55;3.60;;;;;;;14.07;55.36;99389.25;4492610;31;33072;-81
2024/03/01 02:36:40;;;;;;;4.78;3.80;;;;;;;14.04;55.41;99393.91;4479514;31;33673;-82
2024/03/01 02:39:16;;;;;;;16.67;3.58;;;;;;;13.92;55.70;99395.56;4480989;31;33933;-81
2024/03/01 02:41:45;;;;;;;3.75;2.25;;;;;;;13.74;56.53;99392.25;4479915;31;33785;-81
2024/03/01 02:44:13;;;;;;;1.52;1.50;;;;;;;14.19;54.95;99392.06;4494071;31;33046;-80
2024/03/01 02:46:41;;;;;;;13.18;4.43;;;;;;;14.15;55.23;99398.50;4480484;31;33498;-81
2024/03/01 02:49:09;;;;;;;11.18;3.12;;;;;;;13.92;55.65;99400.00;4477927;31;33069;-82
2024/03/01 02:51:40;;;;;;;6.50;3.37;;;;;;;14.07;55.37;99393.72;4471216;32;33618;-83
2024/03/01 02:54:08;;;;;;;4.35;3.92;;;;;;;14.32;54.70;99385.84;4463290;31;33490;-83
2024/03/01 02:56:36;;;;;;;6.57;3.72;;;;;;;14.16;55.16;99386.97;4472719;31;33296;-83
2024/03/01 02:59:04;;;;;;;3.17;2.97;;;;;;;14.07;55.17;99372.47;4486770;31;34678;-84
2024/03/01 03:01:32;;;;;;;10.07;3.45;;;;;;;14.37;54.16;99366.94;4461964;31;34033;-84
2024/03/01 03:04:00;;;;;;;4.78;3.95;;;;;;;14.20;54.57;99367.22;4489676;31;33499;-84
2024/03/01 03:06:28;;;;;;;2.55;2.35;;;;;;;14.35;54.20;99364.41;4473675;31;33641;-83
2024/03/01 03:08:55;;;;;;;2.87;2.67;;;;;;;13.90;55.42;99362.94;4472539;31;34110;-83
2024/03/01 03:11:25;;;;;;;3.20;2.90;;;;;;;14.19;54.52;99345.09;4490280;31;34055;-83
2024/03/01 03:13:53;;;;;;;3.50;3.22;;;;;;;14.08;54.81;99359.09;4480651;31;34287;-83
2024/03/01 03:16:21;;;;;;;4.30;3.47;;;;;;;13.99;55.16;99354.38;4491177;31;33885;-83
2024/03/01 03:18:48;;;;;;;9.70;3.50;;;;;;;13.94;55.35;99356.47;4479356;31;33930;-83
2024/03/01 03:21:17;;;;;;;3.47;3.17;;;;;;;13.61;56.10;99345.37;4479310;31;34222;-83
2024/03/01 03:23:45;;;;;;;1.75;1.65;;;;;;;13.67;56.38;99353.78;4494104;31;33314;-83
2024/03/01 03:26:12;;;;;;;2.85;2.65;;;;;;;13.84;55.53;99350.91;4478030;31;32369;-82
2024/03/01 03:28:40;;;;;;;3.17;2.87;;;;;;;13.63;55.94;99354.09;4477237;31;32636;-83
2024/03/01 03:31:08;;;;;;;3.65;2.62;;;;;;;13.57;56.20;99334.94;4492987;31;34015;-83
2024/03/01 03:33:36;;;;;;;3.67;2.65;;;;;;;13.97;54.87;99332.41;4492525;31;33393;-82
2024/03/01 03:36:04;;;;;;;7.68;5.65;;;;;;;13.93;54.82;99344.16;4477402;31;33527;-82
2024/03/01 03:38:32;;;;;;;4.00;3.20;;;;;;;13.66;55.83;99343.28;4466511;31;32724;-82
2024/03/01 03:40:59;;;;;;;6.18;3.70;;;;;;;13.73;55.55;99355.22;4477802;31;34003;-82
2024/03/01 03:43:27;;;;;;;5.22;4.45;;;;;;;13.71;55.42;99343.84;4480519;31;33197;-82
2024/03/01 03:45:55;;;;;;;5.18;4.45;;;;;;;13.91;54.87;99330.16;4479931;31;34537;-83
2024/03/01 03:48:22;;;;;;;4.20;3.55;;;;;;;13.94;54.66;99345.00;4466269;31;34117;-83
2024/03/01 03:50:50;;;;;;;9.32;3.42;;;;;;;13.87;54.96;99344.56;4466090;31;33046;-82
2024/03/01 03:53:18;;;;;;;3.00;2.80;;;;;;;13.89;54.84;99347.97;4479595;31;32177;-82
2024/03/01 03:55:45;;;;;;;8.18;3.80;;;;;;;13.99;54.57;99334.94;4487572;31;33509;-83
2024/03/01 03:58:13;;;;;;;4.68;4.22;;;;;;;14.05;54.23;99330.09;4480784;31;32731;-83
2024/03/01 04:00:41;;;;;;;5.87;4.05;;;;;;;13.84;54.72;99345.59;4479333;31;33027;-82
2024/03/01 04:03:09;;;;;;;4.18;3.65;;;;;;;13.97;54.41;99328.91;4491776;31;33635;-82
2024/03/01 04:05:37;;;;;;;19.12;3.15;;;;;;;13.94;54.12;99345.87;4465135;31;32906;-82
2024/03/01 04:08:04;;;;;;;2.70;2.42;;;;;;;13.94;54.54;99337.06;4477436;31;32955;-83
2024/03/01 04:10:33;;;;;;;2.33;2.12;;;;;;;14.01;54.21;99341.88;4492708;31;33362;-83
2024/03/01 04:13:04;;;;;;;7.32;3.50;;;;;;;13.96;54.16;99329.84;4479117;31;34031;-82
2024/03/01 04:15:33;;;;;;;4.28;2.30;;;;;;;13.98;53.83;99328.78;4477771;31;32459;-82
2024/03/01 04:18:02;;;;;;;1.90;1.80;;;;;;;13.73;54.79;99336.66;4467223;31;32522;-83
2024/03/01 04:20:29;;;;;;;2.83;2.62;;;;;;;14.07;53.68;99330.84;4476551;31;34179;-84
2024/03/01 04:22:57;;;;;;;5.50;4.43;;;;;;;13.69;54.68;99317.41;4477466;31;33275;-82
2024/03/01 04:25:27;;;;;;;7.18;2.58;;;;;;;13.21;56.22;99343.38;4477366;31;32318;-82
2024/03/01 04:27:55;;;;;;;3.70;2.87;;;;;;;13.69;54.90;99322.72;4492459;31;33605;-83
2024/03/01 04:30:23;;;;;;;5.65;5.15;;;;;;;13.62;55.23;99326.69;4465748;31;33367;-82
2024/03/01 04:32:51;;;;;;;5.15;3.85;;;;;;;13.50;55.56;99332.78;4492781;31;33445;-83
2024/03/01 04:35:19;;;;;;;3.72;2.78;;;;;;;13.51;55.35;99327.38;4465908;31;33810;-83
2024/03/01 04:37:47;;;;;;;4.18;2.97;;;;;;;13.49;55.35;99318.69;4477643;31;33543;-83
2024/03/01 04:40:15;;;;;;;2.72;2.53;;;;;;;13.28;56.20;99331.47;4492301;31;33840;-83
2024/03/01 04:42:47;;;;;;;3.10;2.87;;;;;;;13.53;55.17;99324.63;4478701;31;33437;-83
2024/03/01 04:45:15;;;;;;;9.48;4.07;;;;;;;13.58;54.97;99322.56;4477969;31;33829;-82
2024/03/01 04:47:42;;;;;;;8.07;3.92;;;;;;;13.44;55.42;99326.09;4478055;31;33630;-82
2024/03/01 04:50:11;;;;;;;17.90;2.85;;;;;;;13.57;55.01;99332.28;4476963;31;33793;-82
2024/03/01 04:52:39;;;;;;;2.55;2.20;;;;;;;13.64;54.86;99316.00;4476537;31;31819;-82
2024/03/01 04:55:09;;;;;;;2.87;2.62;;;;;;;13.34;55.63;99319.66;4466495;31;32333;-82
2024/03/01 04:57:37;;;;;;;2.30;2.15;;;;;;;13.32;55.72;99311.78;4479088;31;32664;-82
2024/03/01 05:00:11;;;;;;;4.93;3.55;;;;;;;13.56;55.01;99298.75;4475418;31;34349;-82
2024/03/01 05:02:43;;;;;;;2.62;2.42;;;;;;;13.90;53.96;99301.88;4479215;31;32724;-82
2024/03/01 05:05:11;;;;;;;21.12;3.75;;;;;;;13.87;54.11;99301.25;4465118;31;32734;-82
2024/03/01 05:07:39;;;;;;;5.65;3.90;;;;;;;13.70;54.48;99315.59;4477749;31;33443;-82
2024/03/01 05:10:11;;;;;;;2.55;2.35;;;;;;;13.54;54.97;99308.63;4493120;31;34470;-82
2024/03/01 05:12:41;;;;;;;6.90;5.05;;;;;;;13.72;54.30;99311.03;4480148;31;32556;-82
2024/03/01 05:15:12;;;;;;;20.70;4.47;;;;;;;13.36;55.76;99317.75;4489113;31;34699;-82
2024/03/01 05:17:41;;;;;;;3.58;2.67;;;;;;;13.50;54.87;99315.06;4476020;31;33273;-81
2024/03/01 05:20:14;;;;;;;10.68;3.03;;;;;;;13.31;55.56;99325.13;4479666;31;34149;-81
2024/03/01 05:22:43;;;;;;;5.95;3.40;;;;;;;13.74;54.14;99325.06;4478078;31;33482;-81
2024/03/01 05:25:16;;;;;;;3.78;3.15;;;;;;;13.75;53.92;99318.81;4477180;31;33482;-82
2024/03/01 05:27:48;;;;;;;3.78;3.42;;;;;;;13.32;55.20;99332.16;4491773;31;32653;-81
2024/03/01 05:30:20;;;;;;;3.00;2.72;;;;;;;13.31;55.14;99327.78;4490342;31;34068;-82
2024/03/01 05:33:08;;;;;;;3.90;3.55;;;;;;;13.58;54.48;99334.03;4469232;31;34799;-82
2024/03/01 05:35:37;;;;;;;2.78;2.58;;;;;;;13.74;54.00;99333.03;4475576;31;32810;-83
2024/03/01 05:38:05;;;;;;;22.42;3.42;;;;;;;13.96;53.52;99338.66;4478144;31;33818;-83
2024/03/01 05:40:35;;;;;;;4.00;3.70;;;;;;;14.01;53.01;99344.53;4492496;31;32808;-83
2024/03/01 05:43:21;;;;;;;2.42;2.05;;;;;;;13.10;55.53;99363.53;4478335;31;32516;-83
2024/03/01 05:45:51;;;;;;;1.98;1.77;;;;;;;13.62;54.09;99355.88;4492087;31;32326;-83
2024/03/01 05:48:19;;;;;;;3.97;3.55;;;;;;;13.62;53.67;99355.88;4488580;31;33083;-82
2024/03/01 05:50:47;;;;;;;1.87;1.77;;;;;;;13.62;53.50;99357.69;4478253;31;34256;-82
2024/03/01 05:53:15;;;;;;;2.33;2.17;;;;;;;13.50;53.76;99362.81;4476099;31;33666;-82
2024/03/01 05:55:45;;;;;;;4.15;3.05;;;;;;;14.01;52.63;99356.94;4478378;31;33310;-82
2024/03/01 05:58:13;;;;;;;4.60;3.37;;;;;;;13.93;52.80;99353.94;4476751;31;32474;-82
2024/03/01 06:00:42;;;;;;;7.12;2.45;;;;;;;13.94;52.82;99358.28;4490912;31;32139;-83
2024/03/01 06:03:11;;;;;;;2.90;2.33;;;;;;;13.97;52.43;99343.03;4478796;31;33029;-82
2024/03/01 06:05:39;;;;;;;2.95;2.10;;;;;;;13.90;52.76;99360.28;4477173;31;33197;-82
2024/03/01 06:08:06;;;;;;;7.80;4.35;;;;;;;13.93;52.79;99362.75;4487454;31;33250;-82
2024/03/01 06:10:34;;;;;;;3.10;2.83;;;;;;;14.08;52.34;99369.72;4489367;31;33857;-83
2024/03/01 06:13:02;;;;;;;1.70;1.60;;;;;;;13.86;53.02;99353.47;4481457;31;32960;-83
2024/03/01 06:15:30;;;;;;;2.37;2.25;;;;;;;13.83;53.12;99369.59;4464236;31;33243;-83
2024/03/01 06:17:58;;;;;;;4.40;3.33;;;;;;;13.79;52.80;99352.16;4490202;31;33431;-84
2024/03/01 06:20:26;;;;;;;2.12;1.98;;;;;;;13.75;53.02;99346.19;4478006;31;33802;-83
2024/03/01 06:22:54;;;;;;;6.15;3.62;;;;;;;13.51;54.03;99347.75;4477315;31;32403;-83
2024/03/01 06:25:21;;;;;;;4.03;3.67;;;;;;;13.98;52.57;99335.91;4475437;31;33725;-82
2024/03/01 06:27:49;;;;;;;2.42;2.22;;;;;;;14.05;52.53;99337.19;4464972;31;33358;-83
2024/03/01 06:30:18;;;;;;;3.85;3.45;;;;;;;14.11;52.52;99343.94;4464227;31;34196;-83
2024/03/01 06:32:46;;;;;;;3.50;3.22;;;;;;;14.03;52.87;99345.25;4488945;31;33589;-83
2024/03/01 06:35:14;;;;;;;2.40;2.25;;;;;;;14.00;53.23;99342.81;4463970;31;32848;-83
2024/03/01 06:37:41;;;;;;;5.10;2.37;;;;;;;14.02;53.10;99342.72;4475647;31;33540;-83
2024/03/01 06:40:10;;;;;;;3.17;2.92;;;;;;;14.00;53.25;99329.53;4492049;31;33637;-82
2024/03/01 06:42:37;;;;;;;8.00;4.60;;;;;;;13.94;52.79;99335.25;4491453;31;33815;-82
2024/03/01 06:45:08;;;;;;;3.97;2.75;;;;;;;13.98;52.78;99330.59;4467928;31;33297;-83
2024/03/01 06:47:36;;;;;;;2.10;1.92;;;;;;;13.97;52.97;99335.06;4475814;31;34029;-83
2024/03/01 06:50:06;;;;;;;3.85;3.42;;;;;;;13.66;53.57;99332.66;4471186;31;33162;-83
2024/03/01 06:52:37;;;;;;;3.15;2.67;;;;;;;13.71;53.62;99333.22;4458739;31;32875;-82
2024/03/01 06:55:06;;;;;;;2.30;2.10;;;;;;;13.77;53.51;99336.34;4484245;31;33234;-83
2024/03/01 06:57:33;;;;;;;10.98;4.15;;;;;;;13.47;54.04;99333.81;4471449;31;34584;-82
2024/03/01 07:00:06;;;;;;;3.65;2.58;;;;;;;13.96;52.90;99338.66;4458418;31;32696;-82
2024/03/01 07:02:34;;;;;;;4.53;2.55;;;;;;;13.71;53.80;99325.25;4468992;31;34047;-83
2024/03/01 07:05:02;;;;;;;4.43;3.97;;;;;;;13.95;53.04;99315.72;4473697;31;33504;-82
2024/03/01 07:07:34;;;;;;;5.87;1.98;;;;;;;13.77;53.56;99322.25;4483906;31;33639;-82
2024/03/01 07:10:07;;;;;;;2.15;1.80;;;;;;;13.97;53.43;99324.44;4471453;31;33458;-82
2024/03/01 07:12:36;;;;;;;6.65;2.55;;;;;;;14.06;53.22;99323.84;4497749;31;34129;-81
2024/03/01 07:15:08;;;;;;;8.13;2.40;;;;;;;13.72;54.48;99321.66;4470248;31;34191;-82
2024/03/01 07:17:38;;;;;;;7.97;2.97;;;;;;;13.91;54.14;99313.34;4465318;31;34011;-82
2024/03/01 07:20:06;;;;;;;1.23;1.20;;;;;;;13.97;54.19;99312.97;4467366;31;33348;-81
2024/03/01 07:22:33;;;;;;;3.17;2.85;;;;;;;13.67;55.09;99321.09;4471564;31;33383;-81
2024/03/01 07:25:05;;;;;;;3.00;2.62;;;;;;;13.89;54.89;99313.47;4472380;31;32949;-81
2024/03/01 07:27:36;;;;;;;5.80;2.17;;;;;;;13.97;54.68;99319.12;4470842;31;34667;-81
2024/03/01 07:30:04;;;;;;;2.20;1.42;;;;;;;14.07;54.40;99314.06;4485229;31;33224;-81
2024/03/01 07:32:35;;;;;;;1.67;1.15;;;;;;;13.79;55.31;99326.47;4471906;31;33015;-81
2024/03/01 07:35:05;;;;;;;2.27;2.17;;;;;;;14.21;54.63;99315.81;4484709;31;33560;-81
2024/03/01 07:37:33;;;;;;;3.78;2.37;;;;;;;13.94;55.02;99324.63;4472791;31;34015;-81
2024/03/01 07:40:01;;;;;;;1.98;1.85;;;;;;;13.91;55.08;99327.50;4471615;31;35113;-81
2024/03/01 07:42:29;;;;;;;3.83;2.45;;;;;;;13.78;55.61;99326.59;4471810;31;33258;-81
2024/03/01 07:44:56;;;;;;;4.78;3.45;;;;;;;13.58;56.59;99328.72;4485980;31;34311;-81
2024/03/01 07:47:29;;;;;;;2.33;1.95;;;;;;;13.46;56.92;99321.53;4471500;31;33933;-81
2024/03/01 07:49:57;;;;;;;3.83;1.75;;;;;;;13.58;56.86;99323.41;4475329;31;32474;-80
2024/03/01 07:52:28;;;;;;;7.22;3.65;;;;;;;13.54;57.08;99315.75;4480060;31;33753;-83
2024/03/01 07:54:56;;;;;;;1.77;1.25;;;;;;;13.57;57.09;99320.84;4476447;31;33263;-83
2024/03/01 07:57:24;;;;;;;7.50;3.53;;;;;;;13.65;57.02;99317.69;4489312;31;32616;-82
2024/03/01 07:59:51;;;;;;;4.22;2.03;;;;;;;13.81;56.94;99308.66;4479202;31;34064;-81
2024/03/01 08:02:19;;;;;;;1.65;1.55;;;;;;;13.76;57.52;99299.28;4491313;31;32998;-81
2024/03/01 08:04:47;;;;;;;7.70;4.15;;;;;;;13.76;58.46;99300.13;4490738;31;34535;-81
2024/03/01 08:07:15;;;;;;;2.85;2.65;;;;;;;13.74;58.38;99306.50;4488839;31;33702;-82
2024/03/01 08:09:44;;;;;;;3.45;3.15;;;;;;;13.89;58.54;99304.66;4468617;31;34221;-82
2024/03/01 08:12:18;;;;;;;1.73;1.62;;;;;;;13.98;58.02;99294.28;4489705;31;33283;-82
2024/03/01 08:14:46;;;;;;;1.87;1.77;;;;;;;13.62;59.60;99301.97;4479134;31;34272;-82
2024/03/01 08:17:14;;;;;;;5.50;3.55;;;;;;;13.40;60.74;99290.09;4479864;31;32704;-82
2024/03/01 08:19:45;;;;;;;3.65;3.33;;;;;;;13.60;59.63;99291.47;4467341;31;33597;-82
2024/03/01 08:22:19;;;;;;;2.62;1.95;;;;;;;13.74;59.38;99285.28;4468844;31;32848;-82
2024/03/01 08:24:48;;;;;;;3.97;3.60;;;;;;;13.78;59.90;99292.09;4477762;31;33612;-82
2024/03/01 08:27:21;;;;;;;3.22;2.05;;;;;;;13.81;59.49;99286.56;4490157;31;33953;-82
2024/03/01 08:29:49;;;;;;;2.80;2.60;;;;;;;13.73;59.96;99284.44;4492779;31;34324;-82
2024/03/01 08:32:27;;;;;;;2.87;2.28;;;;;;;14.05;59.52;99279.66;4493527;31;33412;-81
2024/03/01 08:34:58;;;;;;;4.37;3.10;;;;;;;14.07;58.66;99285.72;4478439;31;32551;-82
2024/03/01 08:37:27;;;;;;;9.77;4.25;;;;;;;14.22;59.11;99280.34;4478515;31;34822;-82
2024/03/01 08:39:57;;;;;;;2.03;1.83;;;;;;;14.29;58.78;99287.81;4494331;31;33795;-82
2024/03/01 08:42:31;;;;;;;7.60;3.67;;;;;;;13.44;60.86;99288.09;4464494;31;34098;-82
2024/03/01 08:44:59;;;;;;;2.47;1.65;;;;;;;13.68;60.84;99291.00;4477468;31;33995;-82
2024/03/01 08:47:39;;;;;;;6.60;4.07;;;;;;;13.49;61.61;99288.66;4480174;31;34709;-82
2024/03/01 08:50:22;;;;;;;4.05;2.87;;;;;;;13.74;60.58;99290.59;4476953;31;32882;-82
2024/03/01 08:52:52;;;;;;;4.95;2.12;;;;;;;14.03;59.53;99275.41;4477524;31;31869;-82
2024/03/01 08:55:26;;;;;;;7.43;1.90;;;;;;;14.04;59.55;99288.56;4494663;31;33476;-82
2024/03/01 08:57:58;;;;;;;2.37;2.25;;;;;;;13.77;60.39;99279.78;4491665;31;33958;-82
2024/03/01 09:00:27;;;;;;;12.20;2.75;;;;;;;14.09;59.84;99274.97;4479420;31;33409;-82
2024/03/01 09:02:54;;;;;;;2.97;2.67;;;;;;;13.98;60.50;99280.16;4490110;31;33606;-81
2024/03/01 09:05:22;;;;;;;2.65;2.47;;;;;;;14.18;60.07;99268.22;4490914;31;34626;-82
2024/03/01 09:07:49;;;;;;;2.85;2.53;;;;;;;14.09;60.74;99273.19;4491934;31;33922;-81
2024/03/01 09:10:21;;;;;;;9.38;4.60;;;;;;;14.07;60.17;99269.78;4492842;31;33916;-82
2024/03/01 09:12:49;;;;;;;8.73;4.95;;;;;;;14.41;59.08;99269.31;4490439;31;33054;-82
2024/03/01 09:15:20;;;;;;;3.58;2.53;;;;;;;14.21;59.87;99262.72;4480259;31;33645;-82
2024/03/01 09:17:48;;;;;;;3.12;2.92;;;;;;;14.05;59.94;99279.66;4490516;31;34637;-82
2024/03/01 09:20:20;;;;;;;3.90;3.58;;;;;;;13.90;61.05;99274.50;4477052;31;33089;-82
2024/03/01 09:22:47;;;;;;;2.42;1.80;;;;;;;14.07;60.58;99272.44;4493123;31;33690;-82
2024/03/01 09:25:34;;;;;;;2.25;2.08;;;;;;;14.40;59.31;99257.84;4489865;31;33817;-82
2024/03/01 09:28:02;;;;;;;3.03;2.53;;;;;;;13.98;60.46;99258.94;4488733;31;34374;-82
2024/03/01 09:30:30;;;;;;;6.87;3.12;;;;;;;14.42;59.16;99258.59;4490364;31;32656;-82
2024/03/01 09:32:57;;;;;;;1.42;1.40;;;;;;;14.39;59.50;99245.53;4478568;31;32933;-82
2024/03/01 09:35:26;;;;;;;3.75;2.95;;;;;;;14.72;58.17;99246.87;4478155;31;33885;-82
2024/03/01 09:37:55;;;;;;;7.25;2.80;;;;;;;14.63;58.02;99243.03;4475920;31;34515;-82
2024/03/01 09:40:38;;;;;;;1.25;1.15;;;;;;;14.58;58.05;99245.16;4488942;31;32191;-82
2024/03/01 09:43:15;;;;;;;4.47;1.55;;;;;;;14.50;58.63;99248.34;4477498;31;33475;-82
2024/03/01 09:45:54;;;;;;;5.82;1.83;;;;;;;14.22;58.73;99249.31;4487655;31;34042;-82
2024/03/01 09:48:25;;;;;;;1.67;1.08;;;;;;;14.39;58.30;99256.16;4476490;31;33907;-82
2024/03/01 09:51:02;;;;;;;5.80;1.75;;;;;;;14.04;59.41;99254.06;4490731;31;34839;-82
2024/03/01 09:53:56;;;;;;;16.80;1.08;;;;;;;14.24;58.53;99246.56;4478234;31;33037;-82
2024/03/01 09:56:38;;;;;;;1.80;1.60;;;;;;;14.46;57.93;99246.81;4484877;31;33898;-82
2024/03/01 09:59:17;;;;;;;1.33;1.30;;;;;;;14.35;58.31;99252.84;4477998;31;34664;-82
2024/03/01 10:01:50;;;;;;;7.20;2.50;;;;;;;14.35;58.73;99244.03;4479197;31;32483;-82
2024/03/01 10:04:53;;;;;;;2.70;1.67;;;;;;;14.58;58.17;99251.31;4491472;31;32909;-82
2024/03/01 10:07:24;;;;;;;7.05;1.87;;;;;;;14.60;58.37;99252.06;4470004;31;33875;-82
2024/03/01 10:10:01;;;;;;;2.28;2.15;;;;;;;14.67;57.90;99243.66;4477175;31;33734;-82
2024/03/01 10:12:54;;;;;;;2.30;2.00;;;;;;;14.60;58.27;99244.09;4491560;31;33109;-82
2024/03/01 10:15:41;;;;;;;3.85;2.25;;;;;;;14.69;58.12;99252.38;4474333;31;33062;-82
2024/03/01 10:18:31;;;;;;;2.87;2.22;;;;;;;14.63;57.96;99244.84;4476449;31;32416;-83
2024/03/01 10:21:12;;;;;;;1.75;1.65;;;;;;;14.70;57.62;99246.94;4476444;31;33391;-82
2024/03/01 10:24:07;;;;;;;4.62;3.12;;;;;;;14.82;57.25;99254.09;4468325;31;32577;-82
2024/03/01 10:26:38;;;;;;;2.37;2.28;;;;;;;15.03;56.93;99246.41;4489784;31;32928;-83
2024/03/01 10:29:25;;;;;;;13.68;2.90;;;;;;;15.06;56.84;99240.03;4479695;31;34187;-82
2024/03/01 10:31:56;;;;;;;1.55;1.45;;;;;;;14.97;57.43;99241.53;4468996;31;33320;-82
2024/03/01 10:35:01;;;;;;;2.45;2.03;;;;;;;15.05;57.20;99239.19;4491921;31;33943;-83
2024/03/01 10:38:01;;;;;;;3.25;1.77;;;;;;;14.92;57.46;99235.69;4489410;31;33166;-83
2024/03/01 10:40:32;;;;;;;2.92;2.58;;;;;;;14.91;57.85;99233.97;4490305;31;33979;-83
2024/03/01 10:43:25;;;;;;;1.25;1.25;;;;;;;15.00;58.15;99235.12;4490708;31;32731;-82
2024/03/01 10:46:12;;;;;;;2.50;2.40;;;;;;;15.35;56.78;99230.78;4493644;31;33335;-82
2024/03/01 10:48:53;;;;;;;2.30;1.98;;;;;;;14.83;58.26;99233.66;4481049;31;34041;-83
2024/03/01 10:51:24;;;;;;;4.43;2.10;;;;;;;15.35;56.86;99229.94;4479478;31;34111;-82
2024/03/01 10:53:55;;;;;;;1.17;1.10;;;;;;;15.09;57.93;99222.00;4479207;31;32374;-82
2024/03/01 10:56:23;;;;;;;2.72;1.35;;;;;;;14.88;58.50;99223.56;4478947;31;33319;-82
2024/03/01 10:59:01;;;;;;;4.25;1.37;;;;;;;14.91;59.02;99226.00;4477559;31;32302;-82
2024/03/01 11:01:40;;;;;;;1.55;1.08;;;;;;;15.02;58.71;99217.25;4476894;31;33960;-82
2024/03/01 11:04:45;;;;;;;0.55;0.55;;;;;;;15.04;58.42;99218.84;4491588;31;34021;-82
2024/03/01 11:07:19;;;;;;;2.08;1.98;;;;;;;14.95;59.46;99211.53;4492461;31;33671;-82
2024/03/01 11:10:05;;;;;;;1.37;1.05;;;;;;;15.13;59.19;99203.19;4477800;31;32270;-82
2024/03/01 11:13:08;;;;;;;0.95;0.95;;;;;;;15.50;58.30;99207.53;4466764;31;32567;-82
2024/03/01 11:15:35;;;;;;;;;;;;;;;15.52;58.70;99204.75;4476732;31;33546;-82
2024/03/01 11:18:06;;;;;;;6.70;2.10;;;;;;;14.82;61.43;99203.59;4464462;31;34026;-82
2024/03/01 11:20:48;;;;;;;1.52;1.37;;;;;;;14.64;62.28;99198.72;4474453;31;33459;-82
2024/03/01 11:23:29;;;;;;;1.87;1.52;;;;;;;14.78;62.71;99203.91;4475076;31;34207;-82
2024/03/01 11:26:15;;;;;;;2.92;1.08;;;;;;;14.97;62.42;99204.31;4481796;31;34718;-82
2024/03/01 11:28:45;;;;;;;3.37;1.25;;;;;;;14.87;63.93;99202.41;4488143;31;34325;-83
2024/03/01 11:31:21;;;;;;;1.67;1.35;;;;;;;15.23;63.13;99201.56;4477412;31;33234;-83
2024/03/01 11:33:49;;;;;;;2.62;2.05;;;;;;;14.94;63.76;99191.22;4491813;31;33941;-83
2024/03/01 11:36:45;;;;;;;2.15;1.73;;;;;;;15.07;63.49;99189.38;4476469;31;32305;-82
2024/03/01 11:39:33;;;;;;;1.27;1.17;;;;;;;15.30;62.34;99185.06;4479314;31;33958;-83
2024/03/01 11:42:23;;;;;;;3.95;1.98;;;;;;;15.16;62.14;99181.72;4479686;31;32970;-84
2024/03/01 11:45:05;;;;;;;4.12;2.53;;;;;;;14.91;62.07;99193.22;4477306;31;33785;-82
2024/03/01 11:48:10;;;;;;;8.80;1.90;;;;;;;15.21;61.84;99183.06;4488838;31;106954;-82
2024/03/01 11:50:52;;;;;;;1.67;1.37;;;;;;;15.11;62.56;99180.22;4483401;31;33528;-82
2024/03/01 11:53:55;;;;;;;7.28;1.60;;;;;;;14.81;63.69;99182.41;4486101;31;33328;-82